createdAt,value
2018-08-18T00:00:18.226Z,99.90
2018-08-18T00:02:47.058Z,99.90
2018-08-18T00:05:16.439Z,99.90
2018-08-18T00:07:45.147Z,99.90
2018-08-18T00:10:18.885Z,99.90
2018-08-18T00:12:47.555Z,99.90
2018-08-18T00:15:16.426Z,99.90
2018-08-18T00:17:45.033Z,99.90
2018-08-18T00:20:17.383Z,99.90
2018-08-18T00:22:46.188Z,99.90
2018-08-18T00:25:14.791Z,99.90
2018-08-18T00:27:43.407Z,99.90
2018-08-18T00:30:17.358Z,99.90
2018-08-18T00:32:46.073Z,99.90
2018-08-18T00:35:14.628Z,99.90
2018-08-18T00:37:43.482Z,99.90
2018-08-18T00:40:12.703Z,99.90
2018-08-18T00:42:41.727Z,99.90
2018-08-18T00:45:11.783Z,99.90
2018-08-18T00:47:40.641Z,99.90
2018-08-18T00:50:10.282Z,99.90
2018-08-18T00:52:39.239Z,99.90
2018-08-18T00:55:07.984Z,99.90
2018-08-18T00:57:36.638Z,99.90
2018-08-18T01:00:06.696Z,99.90
2018-08-18T01:02:35.471Z,99.90
2018-08-18T01:05:04.559Z,99.90
2018-08-18T01:07:33.448Z,99.90
2018-08-18T01:10:02.680Z,99.90
2018-08-18T01:12:31.403Z,99.90
2018-08-18T01:14:59.883Z,99.90
2018-08-18T01:17:28.350Z,99.90
2018-08-18T01:19:58.323Z,99.90
2018-08-18T01:22:26.994Z,99.90
2018-08-18T01:24:55.482Z,99.90
2018-08-18T01:27:24.019Z,99.90
2018-08-18T01:30:00.714Z,99.90
2018-08-18T01:32:31.364Z,99.90
2018-08-18T01:34:59.876Z,99.90
2018-08-18T01:37:28.688Z,99.90
2018-08-18T01:39:57.286Z,99.90
2018-08-18T01:42:25.794Z,99.90
2018-08-18T01:44:55.474Z,99.90
2018-08-18T01:47:23.946Z,99.90
2018-08-18T01:49:52.454Z,99.90
2018-08-18T01:52:22.687Z,99.90
2018-08-18T01:54:51.350Z,99.90
2018-08-18T01:57:21.094Z,99.90
2018-08-18T01:59:50.066Z,99.90
2018-08-18T02:02:21.904Z,99.90
2018-08-18T02:04:51.062Z,99.90
2018-08-18T02:07:28.565Z,99.90
2018-08-18T02:09:57.402Z,99.90
2018-08-18T02:12:26.603Z,99.90
2018-08-18T02:14:55.827Z,99.90
2018-08-18T02:17:27.011Z,99.90
2018-08-18T02:19:55.967Z,99.90
2018-08-18T02:22:25.346Z,99.90
2018-08-18T02:24:53.994Z,99.90
2018-08-18T02:27:22.482Z,99.90
2018-08-18T02:30:03.077Z,99.90
2018-08-18T02:32:35.939Z,99.90
2018-08-18T02:35:05.306Z,99.90
2018-08-18T02:37:33.827Z,99.90
2018-08-18T02:40:02.364Z,99.90
2018-08-18T02:42:30.935Z,99.90
2018-08-18T02:44:59.438Z,99.90
2018-08-18T02:47:28.014Z,99.90
2018-08-18T02:49:57.234Z,99.90
2018-08-18T02:52:27.038Z,99.90
2018-08-18T02:54:57.555Z,99.90
2018-08-18T02:57:29.543Z,99.90
2018-08-18T02:59:59.982Z,99.90
2018-08-18T03:02:28.447Z,99.90
2018-08-18T03:04:57.007Z,99.90
2018-08-18T03:07:25.999Z,99.90
2018-08-18T03:09:54.598Z,99.90
2018-08-18T03:12:25.478Z,99.90
2018-08-18T03:14:53.967Z,99.90
2018-08-18T03:17:22.610Z,99.90
2018-08-18T03:19:51.162Z,99.90
2018-08-18T03:22:19.823Z,99.90
2018-08-18T03:24:48.504Z,99.90
2018-08-18T03:27:16.999Z,99.90
2018-08-18T03:29:50.876Z,99.90
2018-08-18T03:32:19.959Z,99.90
2018-08-18T03:34:48.476Z,99.90
2018-08-18T03:37:30.414Z,99.90
2018-08-18T03:39:58.983Z,99.90
2018-08-18T03:42:35.778Z,99.90
2018-08-18T03:45:06.835Z,99.90
2018-08-18T03:47:35.291Z,99.90
2018-08-18T03:50:04.611Z,99.90
2018-08-18T03:52:33.124Z,99.90
2018-08-18T03:55:01.644Z,99.90
2018-08-18T03:57:46.785Z,99.90
2018-08-18T04:00:16.662Z,99.90
2018-08-18T04:02:45.131Z,99.90
2018-08-18T04:05:13.660Z,99.90
2018-08-18T04:07:48.021Z,99.90
2018-08-18T04:10:18.174Z,99.90
2018-08-18T04:12:46.923Z,99.90
2018-08-18T04:15:15.704Z,99.90
2018-08-18T04:17:44.190Z,99.90
2018-08-18T04:20:12.931Z,99.90
2018-08-18T04:22:41.451Z,99.90
2018-08-18T04:25:09.994Z,99.90
2018-08-18T04:27:40.361Z,99.90
2018-08-18T04:30:11.258Z,99.90
2018-08-18T04:33:10.935Z,99.90
2018-08-18T04:35:40.813Z,99.90
2018-08-18T04:38:09.298Z,99.90
2018-08-18T04:40:37.798Z,99.90
2018-08-18T04:43:06.383Z,99.90
2018-08-18T04:45:34.858Z,99.90
2018-08-18T04:48:03.522Z,99.90
2018-08-18T04:50:32.122Z,99.90
2018-08-18T04:53:00.647Z,99.90
2018-08-18T04:55:29.115Z,99.90
2018-08-18T04:57:57.751Z,99.90
2018-08-18T05:00:27.891Z,99.90
2018-08-18T05:02:59.246Z,99.90
2018-08-18T05:05:29.148Z,99.90
2018-08-18T05:07:58.975Z,99.90
2018-08-18T05:10:27.797Z,99.90
2018-08-18T05:12:56.526Z,99.90
2018-08-18T05:15:25.143Z,99.90
2018-08-18T05:17:53.727Z,99.90
2018-08-18T05:20:25.379Z,99.90
2018-08-18T05:22:53.893Z,99.90
2018-08-18T05:25:28.672Z,99.90
2018-08-18T05:27:57.661Z,99.90
2018-08-18T05:30:26.150Z,99.90
2018-08-18T05:32:54.712Z,99.90
2018-08-18T05:35:23.219Z,99.90
2018-08-18T05:37:51.806Z,99.90
2018-08-18T05:40:20.395Z,99.90
2018-08-18T05:42:49.067Z,99.90
2018-08-18T05:45:25.268Z,99.90
2018-08-18T05:47:54.348Z,99.90
2018-08-18T05:50:25.563Z,99.90
2018-08-18T05:53:29.581Z,99.90
2018-08-18T05:55:58.675Z,99.90
2018-08-18T05:58:28.326Z,99.90
2018-08-18T06:01:02.092Z,99.90
2018-08-18T06:03:30.823Z,99.90
2018-08-18T06:05:59.553Z,99.90
2018-08-18T06:08:28.351Z,99.90
2018-08-18T06:10:57.035Z,99.90
2018-08-18T06:13:25.504Z,99.90
2018-08-18T06:16:06.292Z,99.90
2018-08-18T06:18:36.728Z,99.90
2018-08-18T06:21:06.303Z,99.90
2018-08-18T06:23:35.292Z,99.90
2018-08-18T06:26:04.166Z,99.90
2018-08-18T06:28:33.546Z,99.90
2018-08-18T06:31:02.062Z,99.90
2018-08-18T06:33:30.876Z,99.90
2018-08-18T06:35:59.387Z,99.90
2018-08-18T06:38:28.133Z,99.90
2018-08-18T06:40:59.689Z,99.90
2018-08-18T06:43:29.999Z,99.90
2018-08-18T06:45:59.299Z,99.90
2018-08-18T06:48:31.169Z,99.90
2018-08-18T06:50:59.863Z,99.90
2018-08-18T06:53:29.256Z,99.90
2018-08-18T06:56:00.627Z,99.90
2018-08-18T06:58:29.281Z,99.90
2018-08-18T07:00:57.880Z,99.90
2018-08-18T07:03:34.018Z,99.90
2018-08-18T07:06:03.558Z,99.90
2018-08-18T07:08:38.634Z,99.90
2018-08-18T07:11:07.231Z,99.90
2018-08-18T07:13:35.831Z,99.90
2018-08-18T07:16:04.532Z,99.90
2018-08-18T07:18:33.318Z,99.90
2018-08-18T07:21:01.817Z,99.90
2018-08-18T07:23:30.445Z,99.90
2018-08-18T07:26:00.261Z,99.90
2018-08-18T07:28:29.059Z,99.90
2018-08-18T07:30:57.631Z,99.90
2018-08-18T07:33:26.352Z,99.90
2018-08-18T07:35:54.907Z,99.90
2018-08-18T07:38:23.638Z,99.90
2018-08-18T07:40:53.618Z,99.90
2018-08-18T07:43:25.731Z,99.90
2018-08-18T07:45:55.581Z,99.90
2018-08-18T07:48:24.212Z,99.90
2018-08-18T07:50:52.799Z,99.90
2018-08-18T07:53:21.437Z,99.90
2018-08-18T07:55:49.999Z,99.90
2018-08-18T07:58:20.295Z,99.90
2018-08-18T08:00:48.828Z,99.90
2018-08-18T08:03:18.135Z,99.90
2018-08-18T08:05:46.924Z,99.90
2018-08-18T08:08:15.574Z,99.90
2018-08-18T08:10:44.178Z,99.90
2018-08-18T08:13:14.023Z,99.90
2018-08-18T08:15:42.598Z,99.90
2018-08-18T08:18:13.082Z,99.90
2018-08-18T08:20:41.716Z,99.90
2018-08-18T08:23:10.242Z,99.90
2018-08-18T08:25:38.916Z,99.90
2018-08-18T08:28:07.484Z,99.90
2018-08-18T08:30:36.133Z,99.90
2018-08-18T08:33:04.840Z,99.90
2018-08-18T08:35:36.388Z,99.90
2018-08-18T08:38:04.935Z,99.90
2018-08-18T08:40:33.639Z,99.90
2018-08-18T08:43:02.220Z,99.90
2018-08-18T08:45:30.842Z,99.90
2018-08-18T08:47:59.619Z,99.90
2018-08-18T08:50:28.150Z,99.90
2018-08-18T08:52:57.586Z,99.90
2018-08-18T08:55:27.506Z,99.90
2018-08-18T08:57:56.192Z,99.90
2018-08-18T09:00:24.861Z,99.90
2018-08-18T09:02:53.639Z,99.90
2018-08-18T09:05:22.328Z,99.90
2018-08-18T09:07:50.998Z,99.90
2018-08-18T09:10:19.718Z,99.90
2018-08-18T09:12:48.254Z,99.90
2018-08-18T09:15:17.605Z,99.90
2018-08-18T09:17:46.179Z,99.90
2018-08-18T09:20:18.038Z,99.90
2018-08-18T09:22:56.351Z,99.90
2018-08-18T09:25:26.390Z,99.90
2018-08-18T09:27:56.178Z,99.90
2018-08-18T09:30:26.285Z,99.90
2018-08-18T09:32:55.064Z,99.90
2018-08-18T09:35:23.603Z,99.90
2018-08-18T09:37:57.657Z,99.90
2018-08-18T09:40:26.959Z,99.90
2018-08-18T09:42:55.551Z,99.90
2018-08-18T09:45:24.153Z,99.90
2018-08-18T09:47:52.808Z,99.90
2018-08-18T09:50:21.400Z,99.90
2018-08-18T09:52:50.046Z,99.90
2018-08-18T09:55:18.631Z,99.90
2018-08-18T09:57:47.314Z,99.90
2018-08-18T10:00:15.976Z,99.90
2018-08-18T10:02:44.719Z,99.90
2018-08-18T10:05:13.312Z,99.90
2018-08-18T10:07:42.342Z,99.90
2018-08-18T10:10:12.694Z,99.90
2018-08-18T10:12:41.367Z,99.90
2018-08-18T10:15:10.091Z,99.90
2018-08-18T10:17:38.621Z,99.90
2018-08-18T10:20:07.703Z,99.90
2018-08-18T10:22:36.448Z,99.90
2018-08-18T10:25:06.035Z,99.90
2018-08-18T10:27:34.555Z,99.90
2018-08-18T10:30:03.202Z,99.90
2018-08-18T10:32:31.984Z,99.90
2018-08-18T10:35:00.531Z,99.90
2018-08-18T10:37:29.100Z,99.90
2018-08-18T10:40:01.794Z,99.90
2018-08-18T10:42:31.871Z,99.90
2018-08-18T10:45:01.186Z,99.90
2018-08-18T10:47:30.192Z,99.90
2018-08-18T10:50:10.273Z,99.90
2018-08-18T10:52:50.194Z,99.90
2018-08-18T10:55:19.705Z,99.90
2018-08-18T10:58:05.830Z,99.90
2018-08-18T11:00:34.849Z,99.90
2018-08-18T11:03:07.625Z,99.90
2018-08-18T11:05:36.134Z,99.90
2018-08-18T11:08:07.953Z,99.90
2018-08-18T11:10:38.071Z,99.90
2018-08-18T11:13:06.691Z,99.90
2018-08-18T11:15:35.260Z,99.90
2018-08-18T11:18:03.875Z,99.90
2018-08-18T11:20:33.935Z,99.90
2018-08-18T11:23:05.499Z,99.90
2018-08-18T11:25:38.079Z,99.90
2018-08-18T11:28:07.804Z,99.90
2018-08-18T11:30:36.495Z,99.90
2018-08-18T11:33:05.394Z,99.90
2018-08-18T11:35:34.505Z,99.90
2018-08-18T11:38:12.540Z,99.90
2018-08-18T11:40:41.519Z,99.90
2018-08-18T11:43:11.916Z,99.90
2018-08-18T11:45:41.411Z,98.20
2018-08-18T11:48:21.973Z,99.90
2018-08-18T11:50:51.768Z,99.90
2018-08-18T11:53:20.512Z,99.90
2018-08-18T11:55:49.133Z,99.90
2018-08-18T11:58:19.131Z,99.90
2018-08-18T12:00:53.174Z,99.90
2018-08-18T12:03:24.091Z,99.90
2018-08-18T12:05:54.654Z,99.90
2018-08-18T12:08:24.718Z,99.90
2018-08-18T12:10:55.367Z,99.90
2018-08-18T12:13:29.879Z,99.90
2018-08-18T12:16:07.659Z,99.90
2018-08-18T12:18:37.734Z,98.90
2018-08-18T12:21:06.835Z,99.70
2018-08-18T12:23:37.414Z,99.90
2018-08-18T12:26:11.558Z,99.90
2018-08-18T12:28:44.179Z,99.60
2018-08-18T12:31:14.743Z,99.40
2018-08-18T12:33:43.283Z,99.40
2018-08-18T12:36:12.037Z,99.90
2018-08-18T12:38:41.753Z,99.80
2018-08-18T12:41:10.235Z,99.90
2018-08-18T12:43:41.238Z,99.80
2018-08-18T12:46:11.734Z,99.90
2018-08-18T12:48:41.775Z,99.70
2018-08-18T12:51:11.775Z,98.30
2018-08-18T12:53:45.606Z,99.20
2018-08-18T12:56:15.640Z,98.60
2018-08-18T12:58:44.312Z,97.80
2018-08-18T13:01:13.174Z,98.40
2018-08-18T13:03:41.810Z,98.80
2018-08-18T13:06:10.791Z,98.90
2018-08-18T13:08:39.365Z,98.40
2018-08-18T13:11:08.145Z,98.00
2018-08-18T13:13:36.683Z,99.90
2018-08-18T13:16:05.363Z,98.60
2018-08-18T13:18:34.567Z,99.20
2018-08-18T13:21:03.016Z,99.20
2018-08-18T13:23:31.535Z,99.20
2018-08-18T13:26:00.152Z,99.70
2018-08-18T13:28:28.684Z,99.70
2018-08-18T13:30:57.340Z,99.40
2018-08-18T13:33:25.900Z,99.20
2018-08-18T13:35:54.439Z,99.10
2018-08-18T13:38:30.099Z,99.30
2018-08-18T13:40:58.671Z,99.80
2018-08-18T13:43:39.294Z,99.00
2018-08-18T13:46:09.295Z,99.90
2018-08-18T13:48:37.936Z,99.30
2018-08-18T13:51:07.529Z,98.90
2018-08-18T13:53:43.414Z,99.30
2018-08-18T13:56:12.046Z,98.50
2018-08-18T13:58:40.680Z,99.40
2018-08-18T14:01:24.619Z,99.30
2018-08-18T14:03:53.634Z,99.10
2018-08-18T14:06:22.108Z,98.50
2018-08-18T14:08:56.199Z,98.20
2018-08-18T14:11:25.240Z,99.20
2018-08-18T14:13:53.958Z,99.40
2018-08-18T14:16:22.670Z,99.80
2018-08-18T14:18:51.269Z,98.90
2018-08-18T14:21:19.842Z,98.80
2018-08-18T14:23:48.316Z,99.00
2018-08-18T14:26:17.004Z,98.90
2018-08-18T14:28:45.475Z,98.80
2018-08-18T14:31:14.110Z,97.90
2018-08-18T14:33:42.737Z,98.20
2018-08-18T14:36:12.606Z,98.20
2018-08-18T14:38:43.010Z,98.30
2018-08-18T14:41:12.331Z,98.90
2018-08-18T14:43:42.127Z,98.50
2018-08-18T14:46:12.425Z,99.90
2018-08-18T14:48:41.144Z,99.00
2018-08-18T14:51:10.026Z,98.60
2018-08-18T14:53:42.420Z,98.60
2018-08-18T14:56:11.082Z,98.30
2018-08-18T14:58:43.582Z,99.20
2018-08-18T15:01:14.075Z,98.50
2018-08-18T15:03:43.309Z,98.20
2018-08-18T15:06:12.978Z,97.90
2018-08-18T15:08:41.811Z,98.00
2018-08-18T15:11:10.354Z,97.60
2018-08-18T15:13:38.910Z,98.50
2018-08-18T15:16:07.554Z,97.80
2018-08-18T15:18:36.240Z,98.90
2018-08-18T15:21:04.984Z,98.10
2018-08-18T15:23:33.428Z,98.30
2018-08-18T15:26:02.179Z,98.30
2018-08-18T15:28:30.953Z,98.00
2018-08-18T15:30:59.651Z,98.00
2018-08-18T15:33:28.708Z,97.90
2018-08-18T15:35:57.414Z,97.30
2018-08-18T15:38:41.414Z,98.00
2018-08-18T15:41:10.471Z,96.90
2018-08-18T15:43:39.403Z,97.80
2018-08-18T15:46:08.274Z,96.80
2018-08-18T15:48:40.101Z,97.90
2018-08-18T15:51:08.668Z,97.50
2018-08-18T15:54:04.710Z,98.00
2018-08-18T15:56:34.559Z,97.90
2018-08-18T15:59:03.878Z,98.20
2018-08-18T16:01:33.739Z,97.00
2018-08-18T16:04:03.383Z,97.30
2018-08-18T16:06:31.918Z,97.30
2018-08-18T16:09:00.427Z,98.00
2018-08-18T16:11:28.984Z,96.60
2018-08-18T16:13:57.693Z,97.50
2018-08-18T16:16:26.209Z,97.20
2018-08-18T16:19:02.962Z,96.00
2018-08-18T16:21:32.812Z,96.90
2018-08-18T16:24:01.965Z,97.60
2018-08-18T16:26:30.740Z,96.90
2018-08-18T16:28:59.472Z,97.20
2018-08-18T16:31:28.090Z,96.90
2018-08-18T16:33:56.792Z,95.90
2018-08-18T16:36:31.726Z,97.20
2018-08-18T16:39:00.730Z,96.30
2018-08-18T16:41:29.249Z,95.90
2018-08-18T16:43:57.858Z,96.60
2018-08-18T16:46:28.540Z,96.60
2018-08-18T16:48:57.242Z,96.90
2018-08-18T16:51:25.936Z,96.50
2018-08-18T16:53:54.487Z,97.30
2018-08-18T16:56:29.106Z,96.40
2018-08-18T16:58:59.074Z,96.80
2018-08-18T17:01:27.777Z,97.20
2018-08-18T17:03:56.485Z,97.00
2018-08-18T17:06:25.026Z,97.30
2018-08-18T17:08:53.607Z,97.40
2018-08-18T17:11:22.113Z,97.60
2018-08-18T17:13:50.842Z,96.60
2018-08-18T17:16:21.221Z,96.80
2018-08-18T17:18:49.894Z,96.90
2018-08-18T17:21:18.483Z,97.80
2018-08-18T17:23:47.019Z,96.50
2018-08-18T17:26:15.551Z,97.20
2018-08-18T17:28:44.163Z,97.00
2018-08-18T17:31:12.691Z,97.00
2018-08-18T17:33:41.246Z,96.90
2018-08-18T17:36:09.896Z,97.40
2018-08-18T17:38:38.481Z,97.60
2018-08-18T17:41:07.008Z,97.20
2018-08-18T17:43:35.538Z,96.70
2018-08-18T17:46:06.101Z,97.30
2018-08-18T17:48:41.435Z,96.70
2018-08-18T17:51:10.611Z,97.30
2018-08-18T17:53:43.863Z,97.30
2018-08-18T17:56:13.028Z,97.10
2018-08-18T17:58:41.647Z,97.30
2018-08-18T18:01:10.175Z,97.80
2018-08-18T18:03:38.896Z,97.20
2018-08-18T18:06:07.565Z,97.40
2018-08-18T18:08:36.165Z,98.30
2018-08-18T18:11:04.917Z,98.40
2018-08-18T18:13:34.887Z,98.20
2018-08-18T18:16:08.811Z,98.70
2018-08-18T18:18:42.557Z,97.70
2018-08-18T18:21:11.146Z,98.40
2018-08-18T18:23:39.936Z,98.20
2018-08-18T18:26:08.546Z,99.10
2018-08-18T18:28:37.088Z,98.90
2018-08-18T18:31:05.715Z,99.20
2018-08-18T18:33:34.362Z,98.70
2018-08-18T18:36:02.934Z,99.40
2018-08-18T18:38:37.202Z,99.90
2018-08-18T18:41:06.291Z,99.90
2018-08-18T18:43:35.268Z,99.90
2018-08-18T18:46:03.954Z,99.60
2018-08-18T18:48:32.454Z,99.90
2018-08-18T18:51:01.031Z,99.90
2018-08-18T18:53:45.402Z,99.90
2018-08-18T18:56:14.003Z,99.60
2018-08-18T18:58:42.699Z,99.90
2018-08-18T19:01:12.654Z,99.90
2018-08-18T19:03:41.088Z,99.90
2018-08-18T19:06:09.792Z,99.90
2018-08-18T19:08:53.785Z,99.90
2018-08-18T19:11:22.902Z,99.90
2018-08-18T19:13:51.654Z,99.90
2018-08-18T19:16:20.321Z,99.90
2018-08-18T19:18:48.703Z,99.90
2018-08-18T19:21:17.429Z,99.90
2018-08-18T19:23:45.945Z,99.90
2018-08-18T19:26:14.494Z,99.90
2018-08-18T19:28:43.398Z,99.90
2018-08-18T19:31:12.038Z,99.90
2018-08-18T19:33:40.534Z,99.90
2018-08-18T19:36:09.239Z,99.90
2018-08-18T19:38:37.911Z,99.90
2018-08-18T19:41:06.502Z,99.90
2018-08-18T19:43:35.858Z,99.90
2018-08-18T19:46:04.653Z,99.90
2018-08-18T19:48:33.184Z,99.90
2018-08-18T19:51:02.736Z,99.90
2018-08-18T19:53:32.818Z,99.90
2018-08-18T19:56:02.166Z,99.90
2018-08-18T19:58:31.414Z,99.90
2018-08-18T20:01:00.100Z,99.90
2018-08-18T20:03:28.683Z,99.90
2018-08-18T20:05:57.430Z,99.90
2018-08-18T20:08:27.244Z,99.90
2018-08-18T20:10:58.175Z,99.90
2018-08-18T20:13:28.202Z,99.90
2018-08-18T20:15:58.341Z,99.90
2018-08-18T20:18:26.909Z,99.90
2018-08-18T20:20:59.263Z,99.90
2018-08-18T20:23:27.836Z,99.90
2018-08-18T20:25:56.404Z,99.90
2018-08-18T20:28:24.923Z,99.90
2018-08-18T20:30:53.487Z,99.90
2018-08-18T20:33:22.163Z,99.90
2018-08-18T20:35:50.709Z,99.90
2018-08-18T20:38:19.244Z,99.90
2018-08-18T20:40:47.827Z,99.90
2018-08-18T20:43:16.478Z,99.90
2018-08-18T20:45:47.866Z,99.90
2018-08-18T20:48:19.129Z,99.90
2018-08-18T20:50:47.936Z,99.90
2018-08-18T20:53:17.522Z,99.90
2018-08-18T20:55:51.598Z,99.90
2018-08-18T20:58:20.235Z,99.90
2018-08-18T21:00:48.727Z,99.90
2018-08-18T21:03:17.439Z,99.90
2018-08-18T21:05:46.171Z,99.90
2018-08-18T21:08:19.270Z,99.90
2018-08-18T21:10:48.729Z,99.90
2018-08-18T21:13:17.271Z,99.90
2018-08-18T21:15:45.811Z,99.90
2018-08-18T21:18:19.246Z,99.90
2018-08-18T21:20:48.399Z,99.90
2018-08-18T21:23:17.560Z,99.90
2018-08-18T21:25:48.468Z,99.90
2018-08-18T21:28:18.392Z,99.90
2018-08-18T21:30:47.445Z,99.90
2018-08-18T21:33:16.138Z,99.90
2018-08-18T21:35:44.922Z,99.90
2018-08-18T21:38:13.468Z,99.90
2018-08-18T21:40:42.405Z,99.90
2018-08-18T21:43:22.067Z,99.90
2018-08-18T21:45:52.795Z,99.90
2018-08-18T21:48:25.815Z,99.90
2018-08-18T21:50:54.300Z,99.90
2018-08-18T21:53:22.867Z,99.90
2018-08-18T21:55:51.367Z,99.90
2018-08-18T21:58:19.914Z,99.90
2018-08-18T22:00:49.558Z,99.90
2018-08-18T22:03:18.081Z,99.90
2018-08-18T22:05:46.627Z,99.90
2018-08-18T22:08:15.535Z,99.90
2018-08-18T22:10:50.378Z,99.90
2018-08-18T22:13:18.842Z,99.90
2018-08-18T22:15:47.359Z,99.90
2018-08-18T22:18:16.867Z,99.90
2018-08-18T22:20:45.474Z,99.90
2018-08-18T22:23:13.975Z,99.90
2018-08-18T22:25:42.494Z,99.90
2018-08-18T22:28:11.054Z,99.90
2018-08-18T22:30:39.800Z,99.90
2018-08-18T22:33:08.436Z,99.90
2018-08-18T22:35:40.331Z,99.90
2018-08-18T22:38:09.011Z,99.90
2018-08-18T22:40:37.607Z,99.90
2018-08-18T22:43:06.247Z,99.90
2018-08-18T22:45:34.756Z,99.90
2018-08-18T22:48:03.594Z,99.90
2018-08-18T22:50:32.170Z,99.90
2018-08-18T22:53:00.819Z,99.90
2018-08-18T22:55:31.671Z,99.90
2018-08-18T22:58:01.247Z,99.90
2018-08-18T23:00:30.430Z,99.90
2018-08-18T23:02:58.906Z,99.90
2018-08-18T23:05:27.485Z,99.90
2018-08-18T23:07:57.395Z,99.90
2018-08-18T23:10:29.766Z,99.90
2018-08-18T23:12:58.448Z,99.90
2018-08-18T23:15:27.017Z,99.90
2018-08-18T23:17:55.498Z,99.90
2018-08-18T23:20:24.187Z,99.90
2018-08-18T23:23:02.115Z,99.90
2018-08-18T23:25:34.878Z,99.90
2018-08-18T23:28:03.399Z,99.90
2018-08-18T23:30:34.097Z,99.90
2018-08-18T23:33:04.229Z,99.90
2018-08-18T23:35:32.851Z,99.90
2018-08-18T23:38:01.687Z,99.90
2018-08-18T23:40:30.972Z,99.90
2018-08-18T23:42:59.550Z,99.90
2018-08-18T23:45:48.477Z,99.90
2018-08-18T23:48:16.942Z,99.90
2018-08-18T23:50:45.729Z,99.90
2018-08-18T23:53:16.307Z,99.90
2018-08-18T23:55:49.771Z,99.90
2018-08-18T23:58:21.429Z,99.90
